createdAt,value
2023-01-19T00:01:42.395Z,49.52
2023-01-19T00:04:10.897Z,49.69
2023-01-19T00:06:39.369Z,49.75
2023-01-19T00:09:07.795Z,49.76
2023-01-19T00:11:36.634Z,49.75
2023-01-19T00:14:05.621Z,49.69
2023-01-19T00:16:35.465Z,49.86
2023-01-19T00:19:04.301Z,49.88
2023-01-19T00:21:32.755Z,49.62
2023-01-19T00:24:01.256Z,50.04
2023-01-19T00:26:29.663Z,49.88
2023-01-19T00:28:58.221Z,50.02
2023-01-19T00:31:29.946Z,50.00
2023-01-19T00:33:59.761Z,49.82
2023-01-19T00:36:28.152Z,49.79
2023-01-19T00:38:56.665Z,49.73
2023-01-19T00:41:39.452Z,49.98
2023-01-19T00:44:08.156Z,49.94
2023-01-19T00:46:36.655Z,49.87
2023-01-19T00:49:07.083Z,50.20
2023-01-19T00:51:35.636Z,50.12
2023-01-19T00:54:04.952Z,49.95
2023-01-19T00:56:33.504Z,50.06
2023-01-19T00:59:01.878Z,50.17
2023-01-19T01:01:45.381Z,50.11
2023-01-19T01:04:16.374Z,49.97
2023-01-19T01:06:44.766Z,50.20
2023-01-19T01:09:13.214Z,50.06
2023-01-19T01:11:42.397Z,50.09
2023-01-19T01:14:12.175Z,50.17
2023-01-19T01:16:41.533Z,50.06
2023-01-19T01:19:10.322Z,50.03
2023-01-19T01:21:40.126Z,50.16
2023-01-19T01:24:10.502Z,50.03
2023-01-19T01:26:39.572Z,50.22
2023-01-19T01:29:08.570Z,50.16
2023-01-19T01:31:37.023Z,50.10
2023-01-19T01:34:05.572Z,50.11
2023-01-19T01:36:34.129Z,50.23
2023-01-19T01:39:04.719Z,50.40
2023-01-19T01:41:33.290Z,50.32
2023-01-19T01:44:06.127Z,50.09
2023-01-19T01:46:35.098Z,50.16
2023-01-19T01:49:07.347Z,50.24
2023-01-19T01:51:40.080Z,50.08
2023-01-19T01:54:16.539Z,50.11
2023-01-19T01:56:47.751Z,50.42
2023-01-19T01:59:26.032Z,50.18
2023-01-19T02:02:19.937Z,50.44
2023-01-19T02:04:51.612Z,50.27
2023-01-19T02:07:45.316Z,50.14
2023-01-19T02:10:33.219Z,50.32
2023-01-19T02:13:19.421Z,50.37
2023-01-19T02:15:48.059Z,50.45
2023-01-19T02:18:16.686Z,50.36
2023-01-19T02:20:51.925Z,50.31
2023-01-19T02:23:31.670Z,50.63
2023-01-19T02:26:01.690Z,50.55
2023-01-19T02:28:31.905Z,50.52
2023-01-19T02:31:00.373Z,50.56
2023-01-19T02:33:29.518Z,50.64
2023-01-19T02:35:58.546Z,50.61
2023-01-19T02:38:30.081Z,50.57
2023-01-19T02:41:02.021Z,50.41
2023-01-19T02:43:32.077Z,50.52
2023-01-19T02:46:00.737Z,50.35
2023-01-19T02:48:29.160Z,50.61
2023-01-19T02:51:04.214Z,50.52
2023-01-19T02:54:13.959Z,50.48
2023-01-19T02:56:58.512Z,50.37
2023-01-19T02:59:41.104Z,50.22
2023-01-19T03:02:22.289Z,50.54
2023-01-19T03:05:06.509Z,50.35
2023-01-19T03:07:50.390Z,50.66
2023-01-19T03:10:27.159Z,50.47
2023-01-19T03:13:03.316Z,50.61
2023-01-19T03:15:38.487Z,50.46
2023-01-19T03:18:11.268Z,50.50
2023-01-19T03:20:41.439Z,50.66
2023-01-19T03:23:13.827Z,50.50
2023-01-19T03:25:47.474Z,50.61
2023-01-19T03:28:19.741Z,50.66
2023-01-19T03:31:00.182Z,50.64
2023-01-19T03:33:32.681Z,50.70
2023-01-19T03:36:06.413Z,50.63
2023-01-19T03:38:38.297Z,50.55
2023-01-19T03:41:11.835Z,50.59
2023-01-19T03:43:41.690Z,50.56
2023-01-19T03:46:11.722Z,50.59
2023-01-19T03:48:40.351Z,50.58
2023-01-19T03:51:10.867Z,50.49
2023-01-19T03:53:39.298Z,50.60
2023-01-19T03:56:18.888Z,50.54
2023-01-19T03:58:47.579Z,50.82
2023-01-19T04:01:17.231Z,50.59
2023-01-19T04:03:47.123Z,50.68
2023-01-19T04:06:16.078Z,50.84
2023-01-19T04:08:44.870Z,50.68
2023-01-19T04:11:14.617Z,50.78
2023-01-19T04:13:43.269Z,50.64
2023-01-19T04:16:12.367Z,50.85
2023-01-19T04:18:42.262Z,50.61
2023-01-19T04:21:10.948Z,50.69
2023-01-19T04:23:39.322Z,50.85
2023-01-19T04:26:09.490Z,50.58
2023-01-19T04:28:39.420Z,50.68
2023-01-19T04:31:08.523Z,50.80
2023-01-19T04:33:37.086Z,50.62
2023-01-19T04:36:06.311Z,50.70
2023-01-19T04:38:35.032Z,50.64
2023-01-19T04:41:03.463Z,50.60
2023-01-19T04:43:31.964Z,50.80
2023-01-19T04:46:02.172Z,50.69
2023-01-19T04:48:30.643Z,50.60
2023-01-19T04:50:59.068Z,50.81
2023-01-19T04:53:27.510Z,50.79
2023-01-19T04:55:56.368Z,50.84
2023-01-19T04:58:24.747Z,50.83
2023-01-19T05:00:53.244Z,50.79
2023-01-19T05:03:24.955Z,50.93
2023-01-19T05:05:54.221Z,50.62
2023-01-19T05:08:22.699Z,50.84
2023-01-19T05:10:51.250Z,50.78
2023-01-19T05:13:19.749Z,50.87
2023-01-19T05:15:48.193Z,50.83
2023-01-19T05:18:16.785Z,50.64
2023-01-19T05:20:46.801Z,50.68
2023-01-19T05:23:15.271Z,50.89
2023-01-19T05:25:44.536Z,50.65
2023-01-19T05:28:13.123Z,50.80
2023-01-19T05:30:41.619Z,50.54
2023-01-19T05:33:10.076Z,50.46
2023-01-19T05:35:38.537Z,50.21
2023-01-19T05:38:08.291Z,49.73
2023-01-19T05:40:36.650Z,49.28
2023-01-19T05:43:05.432Z,48.83
2023-01-19T05:45:34.309Z,48.44
2023-01-19T05:48:02.956Z,47.93
2023-01-19T05:50:31.617Z,47.25
2023-01-19T05:53:01.088Z,46.78
2023-01-19T05:55:31.148Z,46.47
2023-01-19T05:57:59.609Z,46.06
2023-01-19T06:00:29.215Z,45.58
2023-01-19T06:02:57.773Z,45.89
2023-01-19T06:05:26.293Z,45.44
2023-01-19T06:07:57.390Z,45.97
2023-01-19T06:10:25.954Z,45.23
2023-01-19T06:12:55.711Z,45.45
2023-01-19T06:15:24.196Z,45.58
2023-01-19T06:17:52.636Z,45.08
2023-01-19T06:20:21.047Z,45.11
2023-01-19T06:22:49.503Z,45.35
2023-01-19T06:25:18.119Z,45.36
2023-01-19T06:27:46.577Z,45.61
2023-01-19T06:30:17.080Z,45.84
2023-01-19T06:32:45.490Z,45.86
2023-01-19T06:35:14.330Z,45.18
2023-01-19T06:37:42.776Z,45.37
2023-01-19T06:40:14.375Z,45.32
2023-01-19T06:42:42.958Z,44.97
2023-01-19T06:45:11.861Z,45.48
2023-01-19T06:47:41.615Z,45.43
2023-01-19T06:50:11.669Z,45.41
2023-01-19T06:52:42.403Z,45.75
2023-01-19T06:55:11.891Z,45.60
2023-01-19T06:57:40.691Z,45.60
2023-01-19T07:00:11.651Z,45.69
2023-01-19T07:02:43.702Z,45.71
2023-01-19T07:05:14.402Z,45.73
2023-01-19T07:07:44.790Z,46.00
2023-01-19T07:10:15.639Z,46.15
2023-01-19T07:12:46.459Z,46.29
2023-01-19T07:15:15.576Z,46.87
2023-01-19T07:17:45.463Z,46.83
2023-01-19T07:20:15.031Z,47.24
2023-01-19T07:22:45.697Z,46.98
2023-01-19T07:25:14.822Z,47.64
2023-01-19T07:27:44.865Z,47.69
2023-01-19T07:30:16.123Z,48.24
2023-01-19T07:32:45.981Z,48.06
2023-01-19T07:35:15.440Z,48.27
2023-01-19T07:37:43.911Z,48.42
2023-01-19T07:40:13.184Z,48.49
2023-01-19T07:42:46.469Z,49.18
2023-01-19T07:45:15.196Z,49.25
2023-01-19T07:47:46.264Z,48.94
2023-01-19T07:50:14.902Z,48.50
2023-01-19T07:52:43.708Z,48.48
2023-01-19T07:55:12.255Z,48.53
2023-01-19T07:57:40.774Z,48.25
2023-01-19T08:00:10.635Z,48.49
2023-01-19T08:02:42.150Z,49.00
2023-01-19T08:05:13.261Z,48.71
2023-01-19T08:07:41.666Z,49.11
2023-01-19T08:10:11.133Z,48.84
2023-01-19T08:12:39.562Z,49.28
2023-01-19T08:15:09.371Z,49.31
2023-01-19T08:17:37.941Z,49.73
2023-01-19T08:20:09.222Z,49.28
2023-01-19T08:22:39.008Z,49.13
2023-01-19T08:25:07.904Z,49.09
2023-01-19T08:27:36.311Z,49.36
2023-01-19T08:30:05.522Z,49.59
2023-01-19T08:32:33.935Z,49.35
2023-01-19T08:35:02.425Z,49.48
2023-01-19T08:37:32.666Z,48.99
2023-01-19T08:40:03.905Z,48.85
2023-01-19T08:42:32.365Z,49.08
2023-01-19T08:45:00.850Z,48.89
2023-01-19T08:47:30.205Z,49.15
2023-01-19T08:49:58.717Z,48.85
2023-01-19T08:52:29.262Z,48.62
2023-01-19T08:54:57.741Z,48.87
2023-01-19T08:57:28.246Z,48.29
2023-01-19T08:59:56.673Z,48.55
2023-01-19T09:02:25.166Z,48.38
2023-01-19T09:04:53.651Z,48.16
2023-01-19T09:07:22.153Z,48.33
2023-01-19T09:09:50.570Z,48.69
2023-01-19T09:12:18.958Z,48.30
2023-01-19T09:14:48.855Z,48.38
2023-01-19T09:17:18.099Z,48.30
2023-01-19T09:19:46.519Z,48.30
2023-01-19T09:22:14.979Z,48.31
2023-01-19T09:24:43.416Z,48.44
2023-01-19T09:27:11.883Z,48.49
2023-01-19T09:29:40.397Z,48.67
2023-01-19T09:32:11.293Z,49.35
2023-01-19T09:34:39.691Z,49.94
2023-01-19T09:37:08.871Z,50.01
2023-01-19T09:39:37.592Z,49.94
2023-01-19T09:42:24.119Z,50.10
2023-01-19T09:44:54.364Z,50.01
2023-01-19T09:47:28.182Z,50.44
2023-01-19T09:50:02.180Z,50.25
2023-01-19T09:52:32.698Z,50.03
2023-01-19T09:55:01.155Z,50.15
2023-01-19T09:57:30.226Z,50.19
2023-01-19T09:59:59.602Z,50.00
2023-01-19T10:02:38.077Z,50.14
2023-01-19T10:05:22.355Z,50.40
2023-01-19T10:08:06.092Z,50.29
2023-01-19T10:10:36.780Z,49.96
2023-01-19T10:13:29.899Z,50.04
2023-01-19T10:16:08.354Z,49.75
2023-01-19T10:18:47.446Z,49.65
2023-01-19T10:21:20.257Z,49.59
2023-01-19T10:23:52.159Z,49.15
2023-01-19T10:26:25.388Z,49.24
2023-01-19T10:28:58.812Z,49.37
2023-01-19T10:31:27.369Z,49.16
2023-01-19T10:33:57.238Z,48.88
2023-01-19T10:36:30.166Z,48.76
2023-01-19T10:38:59.177Z,49.13
2023-01-19T10:41:37.516Z,48.65
2023-01-19T10:44:09.432Z,48.97
2023-01-19T10:46:43.252Z,48.90
2023-01-19T10:49:25.583Z,48.59
2023-01-19T10:51:55.266Z,48.79
2023-01-19T10:54:24.648Z,48.68
2023-01-19T10:56:56.519Z,48.56
2023-01-19T10:59:33.787Z,48.55
2023-01-19T11:02:20.692Z,48.39
2023-01-19T11:04:53.902Z,48.44
2023-01-19T11:07:24.502Z,48.39
2023-01-19T11:10:14.097Z,48.46
2023-01-19T11:12:44.309Z,48.33
2023-01-19T11:15:17.468Z,48.38
2023-01-19T11:17:48.148Z,48.73
2023-01-19T11:20:24.408Z,48.75
2023-01-19T11:23:05.526Z,48.53
2023-01-19T11:25:36.652Z,48.60
2023-01-19T11:28:06.164Z,48.83
2023-01-19T11:30:36.073Z,49.10
2023-01-19T11:33:06.126Z,49.11
2023-01-19T11:35:38.976Z,49.10
2023-01-19T11:38:15.200Z,49.48
2023-01-19T11:40:51.734Z,49.49
2023-01-19T11:43:21.768Z,49.18
2023-01-19T11:45:50.409Z,49.26
2023-01-19T11:48:26.521Z,49.29
2023-01-19T11:51:01.556Z,49.46
2023-01-19T11:53:34.258Z,49.57
2023-01-19T11:56:05.708Z,49.38
2023-01-19T11:58:39.576Z,46.28
2023-01-19T12:01:20.812Z,45.30
2023-01-19T12:03:56.124Z,45.79
2023-01-19T12:06:30.491Z,46.04
2023-01-19T12:09:03.377Z,46.37
2023-01-19T12:11:35.675Z,46.56
2023-01-19T12:14:05.332Z,46.67
2023-01-19T12:16:35.545Z,46.84
2023-01-19T12:19:07.768Z,47.15
2023-01-19T12:21:38.788Z,47.35
2023-01-19T12:24:16.235Z,47.35
2023-01-19T12:26:52.341Z,47.42
2023-01-19T12:29:23.349Z,47.44
2023-01-19T12:32:19.486Z,47.60
2023-01-19T12:34:49.390Z,47.74
2023-01-19T12:37:40.526Z,48.27
2023-01-19T12:40:27.371Z,48.32
2023-01-19T12:43:01.198Z,48.46
2023-01-19T12:45:34.764Z,48.46
2023-01-19T12:48:04.950Z,48.79
2023-01-19T12:50:37.643Z,48.49
2023-01-19T12:53:18.334Z,48.66
2023-01-19T12:55:47.626Z,49.11
2023-01-19T12:58:18.958Z,49.11
2023-01-19T13:00:50.516Z,49.19
2023-01-19T13:03:45.393Z,49.17
2023-01-19T13:06:14.024Z,49.52
2023-01-19T13:09:01.592Z,49.57
2023-01-19T13:11:34.304Z,49.51
2023-01-19T13:14:35.651Z,49.47
2023-01-19T13:17:33.512Z,49.73
2023-01-19T13:20:18.822Z,49.92
2023-01-19T13:23:24.865Z,49.65
2023-01-19T13:26:02.625Z,49.54
2023-01-19T13:28:40.137Z,49.85
2023-01-19T13:31:09.941Z,49.45
2023-01-19T13:33:52.637Z,50.02
2023-01-19T13:36:28.636Z,49.83
2023-01-19T13:38:59.322Z,49.95
2023-01-19T13:41:33.145Z,50.20
2023-01-19T13:44:04.291Z,50.40
2023-01-19T13:46:34.628Z,50.17
2023-01-19T13:49:10.762Z,50.24
2023-01-19T13:51:39.438Z,50.59
2023-01-19T13:54:17.217Z,50.43
2023-01-19T13:56:51.013Z,50.69
2023-01-19T13:59:19.490Z,50.58
2023-01-19T14:01:49.154Z,50.69
2023-01-19T14:04:29.068Z,50.67
2023-01-19T14:06:59.711Z,50.79
2023-01-19T14:09:28.234Z,51.12
2023-01-19T14:12:12.057Z,50.84
2023-01-19T14:14:41.133Z,50.71
2023-01-19T14:17:23.069Z,50.99
2023-01-19T14:19:52.799Z,50.92
2023-01-19T14:22:21.563Z,51.18
2023-01-19T14:24:50.123Z,51.11
2023-01-19T14:27:25.142Z,51.11
2023-01-19T14:29:54.836Z,51.28
2023-01-19T14:32:27.750Z,51.16
2023-01-19T14:35:15.375Z,51.20
2023-01-19T14:37:48.447Z,51.35
2023-01-19T14:40:19.895Z,51.20
2023-01-19T14:42:53.939Z,50.94
2023-01-19T14:45:23.592Z,50.57
2023-01-19T14:47:57.671Z,51.02
2023-01-19T14:50:29.001Z,50.60
2023-01-19T14:53:01.190Z,46.30
2023-01-19T14:55:34.353Z,46.23
2023-01-19T14:58:11.480Z,46.17
2023-01-19T15:00:40.401Z,47.26
2023-01-19T15:03:09.888Z,47.58
2023-01-19T15:05:38.652Z,47.74
2023-01-19T15:08:08.728Z,47.82
2023-01-19T15:10:37.491Z,47.97
2023-01-19T15:13:07.395Z,47.74
2023-01-19T15:15:36.530Z,48.01
2023-01-19T15:18:07.506Z,47.92
2023-01-19T15:20:35.936Z,48.14
2023-01-19T15:23:04.392Z,48.34
2023-01-19T15:25:34.920Z,48.34
2023-01-19T15:28:04.080Z,47.91
2023-01-19T15:30:34.269Z,48.45
2023-01-19T15:33:03.009Z,48.48
2023-01-19T15:35:31.539Z,48.72
2023-01-19T15:38:00.011Z,48.83
2023-01-19T15:40:28.625Z,48.98
2023-01-19T15:42:57.098Z,49.04
2023-01-19T15:45:47.897Z,49.16
2023-01-19T15:48:16.558Z,49.15
2023-01-19T15:50:46.037Z,49.02
2023-01-19T15:53:16.682Z,49.43
2023-01-19T15:55:46.111Z,49.58
2023-01-19T15:58:14.714Z,49.67
2023-01-19T16:00:44.590Z,49.65
2023-01-19T16:03:13.447Z,49.61
2023-01-19T16:05:43.397Z,48.91
2023-01-19T16:08:12.786Z,49.12
2023-01-19T16:10:41.740Z,48.83
2023-01-19T16:13:11.706Z,48.79
2023-01-19T16:15:42.186Z,48.96
2023-01-19T16:18:12.092Z,49.04
2023-01-19T16:20:40.931Z,49.05
2023-01-19T16:23:14.853Z,48.97
2023-01-19T16:25:44.212Z,48.90
2023-01-19T16:28:12.945Z,48.64
2023-01-19T16:30:41.633Z,48.80
2023-01-19T16:33:13.732Z,48.68
2023-01-19T16:35:42.408Z,48.71
2023-01-19T16:38:11.334Z,48.53
2023-01-19T16:40:39.895Z,48.60
2023-01-19T16:43:08.427Z,48.29
2023-01-19T16:45:40.617Z,48.28
2023-01-19T16:48:09.098Z,48.46
2023-01-19T16:50:38.896Z,48.43
2023-01-19T16:53:07.396Z,48.42
2023-01-19T16:55:35.821Z,48.31
2023-01-19T16:58:04.305Z,47.95
2023-01-19T17:00:32.778Z,48.11
2023-01-19T17:03:01.223Z,48.03
2023-01-19T17:05:29.736Z,48.13
2023-01-19T17:07:59.631Z,47.93
2023-01-19T17:10:28.107Z,48.07
2023-01-19T17:12:56.570Z,47.90
2023-01-19T17:15:25.018Z,48.19
2023-01-19T17:17:53.455Z,47.97
2023-01-19T17:20:21.945Z,47.89
2023-01-19T17:22:50.386Z,47.77
2023-01-19T17:25:20.348Z,47.94
2023-01-19T17:27:48.787Z,48.55
2023-01-19T17:30:18.126Z,48.67
2023-01-19T17:32:46.609Z,48.83
2023-01-19T17:35:15.108Z,48.75
2023-01-19T17:37:43.592Z,48.69
2023-01-19T17:40:12.841Z,48.34
2023-01-19T17:42:43.189Z,48.43
2023-01-19T17:45:12.068Z,48.63
2023-01-19T17:47:40.549Z,48.22
2023-01-19T17:50:10.044Z,48.47
2023-01-19T17:52:38.700Z,48.50
2023-01-19T17:55:07.905Z,48.12
2023-01-19T17:57:36.850Z,48.30
2023-01-19T18:00:08.405Z,48.05
2023-01-19T18:02:43.308Z,48.55
2023-01-19T18:05:14.155Z,48.02
2023-01-19T18:07:42.696Z,48.53
2023-01-19T18:10:12.738Z,48.07
2023-01-19T18:12:41.549Z,48.50
2023-01-19T18:15:12.486Z,48.79
2023-01-19T18:17:41.003Z,48.76
2023-01-19T18:20:11.329Z,48.44
2023-01-19T18:22:39.938Z,48.57
2023-01-19T18:25:08.957Z,48.48
2023-01-19T18:27:37.377Z,48.63
2023-01-19T18:30:07.000Z,48.53
2023-01-19T18:32:36.819Z,48.66
2023-01-19T18:35:06.138Z,48.69
2023-01-19T18:37:34.667Z,49.04
2023-01-19T18:40:04.426Z,48.73
2023-01-19T18:42:34.868Z,48.81
2023-01-19T18:45:03.921Z,48.64
2023-01-19T18:47:34.526Z,48.99
2023-01-19T18:50:04.590Z,48.88
2023-01-19T18:52:33.317Z,49.17
2023-01-19T18:55:01.716Z,49.28
2023-01-19T18:57:30.194Z,48.86
2023-01-19T18:59:58.680Z,48.92
2023-01-19T19:02:27.189Z,49.17
2023-01-19T19:04:55.750Z,49.28
2023-01-19T19:07:25.586Z,49.17
2023-01-19T19:09:54.054Z,49.06
2023-01-19T19:12:22.508Z,48.87
2023-01-19T19:14:50.913Z,48.72
2023-01-19T19:17:19.459Z,48.93
2023-01-19T19:19:47.940Z,49.01
2023-01-19T19:22:16.531Z,48.74
2023-01-19T19:24:46.302Z,48.99
2023-01-19T19:27:14.929Z,49.06
2023-01-19T19:29:44.886Z,49.06
2023-01-19T19:32:13.580Z,49.03
2023-01-19T19:34:42.324Z,48.59
2023-01-19T19:37:10.787Z,48.80
2023-01-19T19:39:39.271Z,48.94
2023-01-19T19:42:09.169Z,48.95
2023-01-19T19:44:37.714Z,48.97
2023-01-19T19:47:06.336Z,48.71
2023-01-19T19:49:34.836Z,48.94
2023-01-19T19:52:03.451Z,48.77
2023-01-19T19:54:31.969Z,48.94
2023-01-19T19:57:00.376Z,48.65
2023-01-19T19:59:30.138Z,48.64
2023-01-19T20:01:58.666Z,48.69
2023-01-19T20:04:27.245Z,49.02
2023-01-19T20:06:55.771Z,49.10
2023-01-19T20:09:24.244Z,48.87
2023-01-19T20:11:52.915Z,48.89
2023-01-19T20:14:22.407Z,48.86
2023-01-19T20:16:54.260Z,49.10
2023-01-19T20:19:22.678Z,49.05
2023-01-19T20:21:51.234Z,48.91
2023-01-19T20:24:21.350Z,49.20
2023-01-19T20:26:52.319Z,49.17
2023-01-19T20:29:21.844Z,49.39
2023-01-19T20:31:54.236Z,49.42
2023-01-19T20:34:24.719Z,49.24
2023-01-19T20:36:53.934Z,48.95
2023-01-19T20:39:23.993Z,49.22
2023-01-19T20:41:52.915Z,49.35
2023-01-19T20:44:23.528Z,49.24
2023-01-19T20:46:55.351Z,49.19
2023-01-19T20:49:24.124Z,49.05
2023-01-19T20:51:53.388Z,49.01
2023-01-19T20:54:26.289Z,49.17
2023-01-19T20:56:55.442Z,48.87
2023-01-19T20:59:24.444Z,49.14
2023-01-19T21:01:54.306Z,49.42
2023-01-19T21:04:23.176Z,49.15
2023-01-19T21:06:52.143Z,49.14
2023-01-19T21:09:21.703Z,49.15
2023-01-19T21:11:50.212Z,49.37
2023-01-19T21:14:18.600Z,49.30
2023-01-19T21:16:47.149Z,49.52
2023-01-19T21:19:17.287Z,49.46
2023-01-19T21:21:45.748Z,49.61
2023-01-19T21:24:14.136Z,49.65
2023-01-19T21:26:42.771Z,49.84
2023-01-19T21:29:13.222Z,49.51
2023-01-19T21:31:42.152Z,49.82
2023-01-19T21:34:10.784Z,49.63
2023-01-19T21:36:41.727Z,49.75
2023-01-19T21:39:10.303Z,49.73
2023-01-19T21:41:40.192Z,49.87
2023-01-19T21:44:08.898Z,49.80
2023-01-19T21:46:37.288Z,49.78
2023-01-19T21:49:08.338Z,49.67
2023-01-19T21:51:38.060Z,49.83
2023-01-19T21:54:08.119Z,49.90
2023-01-19T21:56:37.870Z,49.73
2023-01-19T21:59:06.725Z,50.08
2023-01-19T22:01:35.959Z,49.76
2023-01-19T22:04:04.491Z,50.05
2023-01-19T22:06:32.990Z,49.92
2023-01-19T22:09:01.623Z,50.21
2023-01-19T22:11:31.624Z,50.26
2023-01-19T22:14:00.835Z,49.94
2023-01-19T22:16:30.432Z,50.13
2023-01-19T22:19:01.244Z,50.50
2023-01-19T22:21:31.455Z,50.42
2023-01-19T22:24:01.964Z,50.56
2023-01-19T22:26:34.008Z,50.35
2023-01-19T22:29:03.172Z,50.35
2023-01-19T22:31:31.766Z,50.56
2023-01-19T22:34:00.405Z,50.69
2023-01-19T22:36:30.505Z,50.36
2023-01-19T22:39:01.053Z,50.71
2023-01-19T22:41:32.763Z,50.43
2023-01-19T22:44:03.034Z,50.78
2023-01-19T22:46:33.043Z,50.53
2023-01-19T22:49:02.448Z,50.67
2023-01-19T22:51:32.343Z,50.98
2023-01-19T22:54:01.099Z,50.83
2023-01-19T22:56:32.765Z,50.64
2023-01-19T22:59:01.391Z,50.63
2023-01-19T23:01:33.313Z,50.91
2023-01-19T23:04:04.191Z,50.75
2023-01-19T23:06:34.359Z,51.04
2023-01-19T23:09:06.612Z,51.06
2023-01-19T23:11:38.580Z,51.11
2023-01-19T23:14:09.530Z,50.93
2023-01-19T23:16:38.348Z,50.87
2023-01-19T23:19:07.464Z,51.08
2023-01-19T23:21:36.852Z,50.96
2023-01-19T23:24:05.894Z,51.09
2023-01-19T23:26:38.105Z,51.01
2023-01-19T23:29:10.603Z,50.97
2023-01-19T23:31:42.982Z,51.20
2023-01-19T23:34:13.125Z,50.91
2023-01-19T23:36:42.989Z,51.24
2023-01-19T23:39:15.184Z,51.07
2023-01-19T23:41:45.277Z,51.26
2023-01-19T23:44:14.222Z,51.17
2023-01-19T23:46:43.784Z,51.03
2023-01-19T23:49:12.573Z,51.02
2023-01-19T23:51:42.096Z,51.24
2023-01-19T23:54:12.172Z,51.27
2023-01-19T23:56:42.542Z,51.05
2023-01-19T23:59:14.177Z,51.27
